sensor_id;sensor_type;location;lat;lon;timestamp;pressure;altitude;pressure_sealevel;temperature;humidity
43934;BME280;59081;42.706;23.306;2023-03-01T00:01:58;95748.88;;;5.10;100.00
43934;BME280;59081;42.706;23.306;2023-03-01T00:04:27;95739.13;;;5.16;100.00
43934;BME280;59081;42.706;23.306;2023-03-01T00:06:53;95652.50;;;4.67;100.00
43934;BME280;59081;42.706;23.306;2023-03-01T00:09:19;95736.41;;;5.23;100.00
43934;BME280;59081;42.706;23.306;2023-03-01T00:11:47;95749.66;;;5.14;100.00
43934;BME280;59081;42.706;23.306;2023-03-01T00:14:13;95686.78;;;4.72;100.00
43934;BME280;59081;42.706;23.306;2023-03-01T00:16:48;95674.69;;;4.73;100.00
43934;BME280;59081;42.706;23.306;2023-03-01T00:19:18;95711.78;;;4.88;100.00
43934;BME280;59081;42.706;23.306;2023-03-01T00:21:44;95633.75;;;4.59;100.00
43934;BME280;59081;42.706;23.306;2023-03-01T00:24:13;95604.09;;;4.39;100.00
43934;BME280;59081;42.706;23.306;2023-03-01T00:26:57;95736.38;;;4.99;100.00
43934;BME280;59081;42.706;23.306;2023-03-01T00:29:28;95673.56;;;4.88;100.00
43934;BME280;59081;42.706;23.306;2023-03-01T00:31:53;95668.84;;;4.71;100.00
43934;BME280;59081;42.706;23.306;2023-03-01T00:34:21;95701.31;;;5.18;100.00
43934;BME280;59081;42.706;23.306;2023-03-01T00:36:47;95633.75;;;4.59;100.00
43934;BME280;59081;42.706;23.306;2023-03-01T00:39:14;95702.06;;;5.01;100.00
43934;BME280;59081;42.706;23.306;2023-03-01T00:41:47;95641.53;;;4.46;100.00
43934;BME280;59081;42.706;23.306;2023-03-01T00:44:13;95626.69;;;4.50;100.00
43934;BME280;59081;42.706;23.306;2023-03-01T00:46:41;95635.31;;;4.49;100.00
43934;BME280;59081;42.706;23.306;2023-03-01T00:49:09;95587.69;;;4.18;100.00
43934;BME280;59081;42.706;23.306;2023-03-01T00:51:35;95599.75;;;4.10;100.00
43934;BME280;59081;42.706;23.306;2023-03-01T00:54:05;95680.56;;;4.75;100.00
43934;BME280;59081;42.706;23.306;2023-03-01T00:56:30;95588.00;;;3.95;100.00
43934;BME280;59081;42.706;23.306;2023-03-01T00:58:58;95661.41;;;4.53;100.00
43934;BME280;59081;42.706;23.306;2023-03-01T01:01:27;95568.16;;;3.95;100.00
43934;BME280;59081;42.706;23.306;2023-03-01T01:04:04;95569.72;;;3.96;100.00
43934;BME280;59081;42.706;23.306;2023-03-01T01:06:44;95700.84;;;4.81;100.00
43934;BME280;59081;42.706;23.306;2023-03-01T01:09:17;95599.00;;;4.24;100.00
43934;BME280;59081;42.706;23.306;2023-03-01T01:11:44;95561.94;;;3.98;100.00
43934;BME280;59081;42.706;23.306;2023-03-01T01:14:13;95602.47;;;4.10;100.00
43934;BME280;59081;42.706;23.306;2023-03-01T01:16:42;95600.47;;;3.93;100.00
43934;BME280;59081;42.706;23.306;2023-03-01T01:19:09;95599.38;;;4.22;100.00
43934;BME280;59081;42.706;23.306;2023-03-01T01:21:35;95601.66;;;4.06;100.00
43934;BME280;59081;42.706;23.306;2023-03-01T01:24:03;95671.13;;;4.51;100.00
43934;BME280;59081;42.706;23.306;2023-03-01T01:26:33;95646.16;;;4.38;100.00
43934;BME280;59081;42.706;23.306;2023-03-01T01:29:03;95661.84;;;4.73;100.00
43934;BME280;59081;42.706;23.306;2023-03-01T01:31:30;95594.72;;;4.33;100.00
43934;BME280;59081;42.706;23.306;2023-03-01T01:34:03;95654.78;;;4.51;100.00
43934;BME280;59081;42.706;23.306;2023-03-01T01:36:29;95671.56;;;4.49;100.00
43934;BME280;59081;42.706;23.306;2023-03-01T01:38:55;95667.22;;;4.41;100.00
43934;BME280;59081;42.706;23.306;2023-03-01T01:41:21;95720.72;;;4.78;100.00
43934;BME280;59081;42.706;23.306;2023-03-01T01:46:41;95632.09;;;4.22;100.00
43934;BME280;59081;42.706;23.306;2023-03-01T01:49:19;95716.78;;;4.61;100.00
43934;BME280;59081;42.706;23.306;2023-03-01T01:51:52;95591.84;;;3.83;100.00
43934;BME280;59081;42.706;23.306;2023-03-01T01:54:29;95620.41;;;4.18;100.00
43934;BME280;59081;42.706;23.306;2023-03-01T01:57:01;95575.56;;;3.98;100.00
43934;BME280;59081;42.706;23.306;2023-03-01T01:59:32;95612.59;;;4.09;100.00
43934;BME280;59081;42.706;23.306;2023-03-01T02:02:04;95651.63;;;4.38;100.00
43934;BME280;59081;42.706;23.306;2023-03-01T02:04:31;95615.34;;;4.20;100.00
43934;BME280;59081;42.706;23.306;2023-03-01T02:07:35;95607.16;;;4.13;100.00
43934;BME280;59081;42.706;23.306;2023-03-01T02:10:04;95636.13;;;4.78;100.00
43934;BME280;59081;42.706;23.306;2023-03-01T02:12:30;95548.34;;;4.19;100.00
43934;BME280;59081;42.706;23.306;2023-03-01T02:14:59;95610.72;;;4.52;100.00
43934;BME280;59081;42.706;23.306;2023-03-01T02:17:31;95672.78;;;4.87;100.00
43934;BME280;59081;42.706;23.306;2023-03-01T02:20:20;95640.81;;;4.77;100.00
43934;BME280;59081;42.706;23.306;2023-03-01T02:22:52;95540.97;;;4.37;100.00
43934;BME280;59081;42.706;23.306;2023-03-01T02:30:42;95590.44;;;4.29;100.00
43934;BME280;59081;42.706;23.306;2023-03-01T02:33:29;95620.47;;;4.32;100.00
43934;BME280;59081;42.706;23.306;2023-03-01T02:36:06;95656.78;;;4.65;100.00
43934;BME280;59081;42.706;23.306;2023-03-01T02:38:36;95580.28;;;4.11;100.00
43934;BME280;59081;42.706;23.306;2023-03-01T02:41:03;95588.47;;;4.18;100.00
43934;BME280;59081;42.706;23.306;2023-03-01T02:43:34;95620.47;;;4.32;100.00
43934;BME280;59081;42.706;23.306;2023-03-01T02:46:21;95650.53;;;4.75;100.00
43934;BME280;59081;42.706;23.306;2023-03-01T02:48:54;95620.84;;;4.41;100.00
43934;BME280;59081;42.706;23.306;2023-03-01T02:51:34;95684.09;;;4.79;100.00
43934;BME280;59081;42.706;23.306;2023-03-01T02:54:28;95684.81;;;4.69;100.00
43934;BME280;59081;42.706;23.306;2023-03-01T02:56:57;95598.19;;;4.16;100.00
43934;BME280;59081;42.706;23.306;2023-03-01T02:59:29;95615.38;;;4.27;100.00
43934;BME280;59081;42.706;23.306;2023-03-01T03:02:00;95658.31;;;4.59;100.00
43934;BME280;59081;42.706;23.306;2023-03-01T03:04:25;95687.19;;;4.74;100.00
43934;BME280;59081;42.706;23.306;2023-03-01T03:06:54;95651.66;;;4.56;100.00
43934;BME280;59081;42.706;23.306;2023-03-01T03:09:22;95679.03;;;4.81;100.00
43934;BME280;59081;42.706;23.306;2023-03-01T03:11:48;95567.38;;;4.01;100.00
43934;BME280;59081;42.706;23.306;2023-03-01T03:14:16;95682.09;;;4.72;100.00
43934;BME280;59081;42.706;23.306;2023-03-01T03:16:51;95600.13;;;4.08;100.00
43934;BME280;59081;42.706;23.306;2023-03-01T03:19:20;95690.69;;;4.71;100.00
43934;BME280;59081;42.706;23.306;2023-03-01T03:21:48;95691.47;;;4.64;100.00
43934;BME280;59081;42.706;23.306;2023-03-01T03:24:17;95628.97;;;4.20;100.00
43934;BME280;59081;42.706;23.306;2023-03-01T03:26:43;95618.84;;;4.20;100.00
43934;BME280;59081;42.706;23.306;2023-03-01T03:29:11;95594.66;;;3.98;100.00
43934;BME280;59081;42.706;23.306;2023-03-01T03:31:37;95640.34;;;4.43;100.00
43934;BME280;59081;42.706;23.306;2023-03-01T03:34:08;95596.97;;;4.03;100.00
43934;BME280;59081;42.706;23.306;2023-03-01T03:36:33;95587.56;;;3.82;100.00
43934;BME280;59081;42.706;23.306;2023-03-01T03:39:02;95571.22;;;3.82;100.00
43934;BME280;59081;42.706;23.306;2023-03-01T03:41:30;95700.78;;;4.56;100.00
43934;BME280;59081;42.706;23.306;2023-03-01T03:44:06;95629.75;;;4.20;100.00
43934;BME280;59081;42.706;23.306;2023-03-01T03:46:33;95707.06;;;4.67;100.00
43934;BME280;59081;42.706;23.306;2023-03-01T03:48:58;95590.28;;;3.82;100.00
43934;BME280;59081;42.706;23.306;2023-03-01T03:51:24;95641.38;;;4.03;100.00
43934;BME280;59081;42.706;23.306;2023-03-01T03:53:49;95634.75;;;4.01;100.00
43934;BME280;59081;42.706;23.306;2023-03-01T03:56:15;95633.13;;;3.85;100.00
43934;BME280;59081;42.706;23.306;2023-03-01T03:58:43;95678.91;;;4.38;100.00
43934;BME280;59081;42.706;23.306;2023-03-01T04:01:12;95606.63;;;3.82;100.00
43934;BME280;59081;42.706;23.306;2023-03-01T04:03:38;95711.66;;;4.42;100.00
43934;BME280;59081;42.706;23.306;2023-03-01T04:06:06;95645.31;;;4.13;100.00
43934;BME280;59081;42.706;23.306;2023-03-01T04:08:38;95610.88;;;3.73;100.00
43934;BME280;59081;42.706;23.306;2023-03-01T04:11:09;95615.59;;;3.79;100.00
43934;BME280;59081;42.706;23.306;2023-03-01T04:13:54;95713.56;;;4.38;100.00
43934;BME280;59081;42.706;23.306;2023-03-01T04:16:24;95689.00;;;4.27;100.00
43934;BME280;59081;42.706;23.306;2023-03-01T04:18:58;95636.97;;;3.81;100.00
43934;BME280;59081;42.706;23.306;2023-03-01T04:21:26;95705.41;;;4.41;100.00
43934;BME280;59081;42.706;23.306;2023-03-01T04:23:54;95624.16;;;3.78;100.00
43934;BME280;59081;42.706;23.306;2023-03-01T04:26:20;95639.03;;;4.02;100.00
43934;BME280;59081;42.706;23.306;2023-03-01T04:28:51;95595.72;;;3.75;100.00
43934;BME280;59081;42.706;23.306;2023-03-01T04:31:18;95630.00;;;3.83;100.00
43934;BME280;59081;42.706;23.306;2023-03-01T04:33:49;95574.97;;;3.46;100.00
43934;BME280;59081;42.706;23.306;2023-03-01T04:36:19;95634.22;;;3.70;100.00
43934;BME280;59081;42.706;23.306;2023-03-01T04:38:46;95715.47;;;4.23;100.00
43934;BME280;59081;42.706;23.306;2023-03-01T04:41:13;95691.28;;;4.18;100.00
43934;BME280;59081;42.706;23.306;2023-03-01T04:43:39;95599.09;;;3.51;100.00
43934;BME280;59081;42.706;23.306;2023-03-01T04:46:11;95609.34;;;3.75;100.00
43934;BME280;59081;42.706;23.306;2023-03-01T04:48:39;95660.06;;;3.98;100.00
43934;BME280;59081;42.706;23.306;2023-03-01T04:51:05;95554.63;;;3.26;100.00
43934;BME280;59081;42.706;23.306;2023-03-01T04:53:31;95641.41;;;4.07;100.00
43934;BME280;59081;42.706;23.306;2023-03-01T04:56:03;95667.91;;;4.17;100.00
43934;BME280;59081;42.706;23.306;2023-03-01T04:58:29;95579.69;;;3.60;100.00
43934;BME280;59081;42.706;23.306;2023-03-01T05:00:57;95615.59;;;3.79;100.00
43934;BME280;59081;42.706;23.306;2023-03-01T05:03:23;95645.16;;;3.74;100.00
43934;BME280;59081;42.706;23.306;2023-03-01T05:05:52;95554.53;;;3.15;100.00
43934;BME280;59081;42.706;23.306;2023-03-01T05:08:18;95647.50;;;3.75;100.00
43934;BME280;59081;42.706;23.306;2023-03-01T05:10:50;95567.47;;;3.29;100.00
43934;BME280;59081;42.706;23.306;2023-03-01T05:13:17;95579.59;;;3.42;100.00
43934;BME280;59081;42.706;23.306;2023-03-01T05:16:03;95689.72;;;4.13;100.00
43934;BME280;59081;42.706;23.306;2023-03-01T05:18:38;95624.47;;;3.62;100.00
43934;BME280;59081;42.706;23.306;2023-03-01T05:21:09;95695.13;;;4.06;100.00
43934;BME280;59081;42.706;23.306;2023-03-01T05:23:41;95651.34;;;3.71;100.00
43934;BME280;59081;42.706;23.306;2023-03-01T05:26:07;95662.44;;;4.10;100.00
43934;BME280;59081;42.706;23.306;2023-03-01T05:28:36;95635.06;;;3.78;100.00
43934;BME280;59081;42.706;23.306;2023-03-01T05:31:08;95609.97;;;3.44;100.00
43934;BME280;59081;42.706;23.306;2023-03-01T05:33:42;95610.75;;;3.44;100.00
43934;BME280;59081;42.706;23.306;2023-03-01T05:36:12;95705.31;;;4.20;100.00
43934;BME280;59081;42.706;23.306;2023-03-01T05:38:37;95614.69;;;3.58;100.00
43934;BME280;59081;42.706;23.306;2023-03-01T05:41:14;95624.09;;;3.71;100.00
43934;BME280;59081;42.706;23.306;2023-03-01T05:43:48;95687.41;;;4.15;100.00
43934;BME280;59081;42.706;23.306;2023-03-01T05:46:16;95712.38;;;4.28;100.00
43934;BME280;59081;42.706;23.306;2023-03-01T05:48:42;95648.19;;;3.65;100.00
43934;BME280;59081;42.706;23.306;2023-03-01T05:51:08;95615.44;;;3.51;100.00
43934;BME280;59081;42.706;23.306;2023-03-01T05:53:34;95690.50;;;4.14;100.00
43934;BME280;59081;42.706;23.306;2023-03-01T05:56:06;95674.41;;;3.88;100.00
43934;BME280;59081;42.706;23.306;2023-03-01T05:58:32;95631.81;;;3.55;100.00
43934;BME280;59081;42.706;23.306;2023-03-01T06:00:57;95687.22;;;3.83;100.00
43934;BME280;59081;42.706;23.306;2023-03-01T06:03:23;95629.41;;;3.42;100.00
43934;BME280;59081;42.706;23.306;2023-03-01T06:05:49;95683.41;;;3.95;100.00
43934;BME280;59081;42.706;23.306;2023-03-01T06:08:20;95643.09;;;3.57;100.00
43934;BME280;59081;42.706;23.306;2023-03-01T06:10:47;95678.66;;;3.81;100.00
43934;BME280;59081;42.706;23.306;2023-03-01T06:13:13;95650.50;;;3.56;100.00
43934;BME280;59081;42.706;23.306;2023-03-01T06:15:38;95698.84;;;3.73;100.00
43934;BME280;59081;42.706;23.306;2023-03-01T06:18:04;95737.13;;;3.95;100.00
43934;BME280;59081;42.706;23.306;2023-03-01T06:20:33;95717.72;;;4.07;100.00
43934;BME280;59081;42.706;23.306;2023-03-01T06:23:01;95706.84;;;4.10;100.00
43934;BME280;59081;42.706;23.306;2023-03-01T06:25:29;95757.19;;;4.27;100.00
43934;BME280;59081;42.706;23.306;2023-03-01T06:27:55;95747.78;;;4.21;100.00
43934;BME280;59081;42.706;23.306;2023-03-01T06:30:25;95757.88;;;4.17;100.00
43934;BME280;59081;42.706;23.306;2023-03-01T06:32:52;95684.75;;;3.57;100.00
43934;BME280;59081;42.706;23.306;2023-03-01T06:35:21;95679.44;;;3.78;100.00
43934;BME280;59081;42.706;23.306;2023-03-01T06:38:01;95754.38;;;4.16;100.00
43934;BME280;59081;42.706;23.306;2023-03-01T06:40:27;95754.41;;;4.20;100.00
43934;BME280;59081;42.706;23.306;2023-03-01T06:42:56;95751.69;;;4.20;100.00
43934;BME280;59081;42.706;23.306;2023-03-01T06:45:29;95731.72;;;4.02;100.00
43934;BME280;59081;42.706;23.306;2023-03-01T06:48:07;95713.00;;;3.97;100.00
43934;BME280;59081;42.706;23.306;2023-03-01T06:50:38;95651.78;;;3.76;100.00
43934;BME280;59081;42.706;23.306;2023-03-01T06:53:06;95655.31;;;3.80;100.00
43934;BME280;59081;42.706;23.306;2023-03-01T06:55:32;95710.75;;;4.13;100.00
43934;BME280;59081;42.706;23.306;2023-03-01T06:58:04;95677.53;;;3.90;100.00
43934;BME280;59081;42.706;23.306;2023-03-01T07:00:32;95668.47;;;3.71;100.00
43934;BME280;59081;42.706;23.306;2023-03-01T07:02:59;95691.53;;;3.88;100.00
43934;BME280;59081;42.706;23.306;2023-03-01T07:05:32;95701.47;;;4.35;100.00
43934;BME280;59081;42.706;23.306;2023-03-01T07:07:58;95643.19;;;3.74;100.00
43934;BME280;59081;42.706;23.306;2023-03-01T07:10:29;95693.59;;;4.09;100.00
43934;BME280;59081;42.706;23.306;2023-03-01T07:13:00;95722.09;;;4.22;100.00
43934;BME280;59081;42.706;23.306;2023-03-01T07:15:28;95672.94;;;4.08;100.00
43934;BME280;59081;42.706;23.306;2023-03-01T07:17:56;95687.72;;;4.03;100.00
43934;BME280;59081;42.706;23.306;2023-03-01T07:20:22;95697.16;;;4.24;100.00
43934;BME280;59081;42.706;23.306;2023-03-01T07:22:57;95655.03;;;4.07;100.00
43934;BME280;59081;42.706;23.306;2023-03-01T07:25:24;95749.09;;;4.55;100.00
43934;BME280;59081;42.706;23.306;2023-03-01T07:27:53;95599.94;;;3.66;100.00
43934;BME280;59081;42.706;23.306;2023-03-01T07:30:20;95609.41;;;3.93;100.00
43934;BME280;59081;42.706;23.306;2023-03-01T07:32:55;95689.81;;;4.31;100.00
43934;BME280;59081;42.706;23.306;2023-03-01T07:35:26;95714.84;;;4.69;100.00
43934;BME280;59081;42.706;23.306;2023-03-01T07:37:57;95743.31;;;4.75;100.00
43934;BME280;59081;42.706;23.306;2023-03-01T07:40:33;95665.66;;;4.40;100.00
43934;BME280;59081;42.706;23.306;2023-03-01T07:43:04;95709.38;;;4.69;100.00
43934;BME280;59081;42.706;23.306;2023-03-01T07:45:32;95724.28;;;4.96;100.00
43934;BME280;59081;42.706;23.306;2023-03-01T07:48:03;95670.44;;;4.79;100.00
43934;BME280;59081;42.706;23.306;2023-03-01T07:50:31;95709.78;;;4.74;100.00
43934;BME280;59081;42.706;23.306;2023-03-01T07:53:03;95712.19;;;4.97;100.00
43934;BME280;59081;42.706;23.306;2023-03-01T07:55:31;95734.06;;;5.11;100.00
43934;BME280;59081;42.706;23.306;2023-03-01T07:58:08;95725.09;;;5.29;100.00
43934;BME280;59081;42.706;23.306;2023-03-01T08:00:40;95636.09;;;4.64;100.00
43934;BME280;59081;42.706;23.306;2023-03-01T08:03:06;95636.88;;;4.61;100.00
43934;BME280;59081;42.706;23.306;2023-03-01T08:05:35;95647.00;;;4.57;100.00
43934;BME280;59081;42.706;23.306;2023-03-01T08:08:03;95625.19;;;4.78;99.50
43934;BME280;59081;42.706;23.306;2023-03-01T08:10:32;95624.00;;;4.58;100.00
43934;BME280;59081;42.706;23.306;2023-03-01T08:12:58;95708.31;;;5.34;99.98
43934;BME280;59081;42.706;23.306;2023-03-01T08:15:29;95631.84;;;4.80;99.14
43934;BME280;59081;42.706;23.306;2023-03-01T08:17:59;95624.44;;;4.81;98.68
43934;BME280;59081;42.706;23.306;2023-03-01T08:20:28;95595.19;;;4.67;98.12
43934;BME280;59081;42.706;23.306;2023-03-01T08:22:59;95669.69;;;5.07;99.24
43934;BME280;59081;42.706;23.306;2023-03-01T08:25:25;95727.84;;;5.53;98.13
43934;BME280;59081;42.706;23.306;2023-03-01T08:27:51;95630.66;;;5.03;97.32
43934;BME280;59081;42.706;23.306;2023-03-01T08:30:21;95627.16;;;5.09;96.65
43934;BME280;59081;42.706;23.306;2023-03-01T08:32:52;95631.47;;;5.14;97.19
43934;BME280;59081;42.706;23.306;2023-03-01T08:35:19;95655.63;;;5.26;96.10
43934;BME280;59081;42.706;23.306;2023-03-01T08:37:45;95646.66;;;5.33;95.51
43934;BME280;59081;42.706;23.306;2023-03-01T08:40:11;95591.66;;;5.06;94.13
43934;BME280;59081;42.706;23.306;2023-03-01T08:42:40;95652.91;;;5.33;95.64
43934;BME280;59081;42.706;23.306;2023-03-01T08:45:08;95593.25;;;5.00;95.81
43934;BME280;59081;42.706;23.306;2023-03-01T08:47:34;95605.72;;;5.01;95.81
43934;BME280;59081;42.706;23.306;2023-03-01T08:50:00;95683.69;;;5.76;94.22
43934;BME280;59081;42.706;23.306;2023-03-01T08:52:26;95615.84;;;5.32;94.43
43934;BME280;59081;42.706;23.306;2023-03-01T08:54:52;95671.19;;;5.79;94.31
43934;BME280;59081;42.706;23.306;2023-03-01T08:57:20;95703.16;;;6.07;92.90
43934;BME280;59081;42.706;23.306;2023-03-01T08:59:46;95613.44;;;5.59;91.00
43934;BME280;59081;42.706;23.306;2023-03-01T09:02:18;95598.28;;;5.33;89.78
43934;BME280;59081;42.706;23.306;2023-03-01T09:04:48;95618.16;;;5.41;90.92
43934;BME280;59081;42.706;23.306;2023-03-01T09:07:16;95593.16;;;5.46;89.58
43934;BME280;59081;42.706;23.306;2023-03-01T09:09:44;95627.84;;;5.77;88.45
43934;BME280;59081;42.706;23.306;2023-03-01T09:12:13;95713.69;;;6.22;88.53
43934;BME280;59081;42.706;23.306;2023-03-01T09:14:43;95606.41;;;5.58;87.70
43934;BME280;59081;42.706;23.306;2023-03-01T09:17:14;95602.50;;;5.59;86.13
43934;BME280;59081;42.706;23.306;2023-03-01T09:19:39;95678.94;;;6.09;87.05
43934;BME280;59081;42.706;23.306;2023-03-01T09:22:05;95634.50;;;5.66;87.68
43934;BME280;59081;42.706;23.306;2023-03-01T09:24:31;95686.03;;;5.74;89.35
43934;BME280;59081;42.706;23.306;2023-03-01T09:26:57;95678.16;;;6.08;88.66
43934;BME280;59081;42.706;23.306;2023-03-01T09:29:23;95683.59;;;6.22;88.00
43934;BME280;59081;42.706;23.306;2023-03-01T09:31:53;95643.81;;;6.04;88.32
43934;BME280;59081;42.706;23.306;2023-03-01T09:34:31;95714.81;;;6.36;88.24
43934;BME280;59081;42.706;23.306;2023-03-01T09:37:16;95584.16;;;5.63;86.88
43934;BME280;59081;42.706;23.306;2023-03-01T09:39:51;95648.47;;;6.07;87.52
43934;BME280;59081;42.706;23.306;2023-03-01T09:42:20;95701.59;;;6.13;89.33
43934;BME280;59081;42.706;23.306;2023-03-01T09:44:56;95572.13;;;5.36;89.99
43934;BME280;59081;42.706;23.306;2023-03-01T09:47:31;95623.91;;;5.96;88.88
43934;BME280;59081;42.706;23.306;2023-03-01T09:50:06;95695.66;;;6.36;89.68
43934;BME280;59081;42.706;23.306;2023-03-01T09:52:43;95648.50;;;6.00;89.44
43934;BME280;59081;42.706;23.306;2023-03-01T09:55:31;95628.91;;;6.19;89.62
43934;BME280;59081;42.706;23.306;2023-03-01T10:09:50;95646.31;;;6.57;85.10
43934;BME280;59081;42.706;23.306;2023-03-01T10:12:22;95610.00;;;6.42;84.65
43934;BME280;59081;42.706;23.306;2023-03-01T10:15:15;95582.72;;;6.28;82.82
43934;BME280;59081;42.706;23.306;2023-03-01T10:18:10;95614.59;;;6.59;83.36
43934;BME280;59081;42.706;23.306;2023-03-01T10:23:12;95678.88;;;6.99;84.07
43934;BME280;59081;42.706;23.306;2023-03-01T10:29:04;95655.75;;;7.08;84.37
43934;BME280;59081;42.706;23.306;2023-03-01T10:31:49;95612.59;;;6.67;83.79
43934;BME280;59081;42.706;23.306;2023-03-01T10:34:20;95585.59;;;6.73;83.04
43934;BME280;59081;42.706;23.306;2023-03-01T10:36:51;95658.69;;;7.27;82.14
43934;BME280;59081;42.706;23.306;2023-03-01T10:39:20;95663.47;;;7.23;81.99
43934;BME280;59081;42.706;23.306;2023-03-01T10:44:40;95664.50;;;7.40;81.75
43934;BME280;59081;42.706;23.306;2023-03-01T10:49:53;95526.72;;;6.47;81.45
43934;BME280;59081;42.706;23.306;2023-03-01T10:52:55;95640.09;;;7.08;81.36
43934;BME280;59081;42.706;23.306;2023-03-01T10:55:40;95583.22;;;6.75;80.76
43934;BME280;59081;42.706;23.306;2023-03-01T10:58:16;95642.50;;;7.47;79.86
43934;BME280;59081;42.706;23.306;2023-03-01T11:03:18;95608.84;;;6.98;79.73
43934;BME280;59081;42.706;23.306;2023-03-01T11:06:00;95611.22;;;6.96;80.09
43934;BME280;59081;42.706;23.306;2023-03-01T11:08:34;95564.41;;;6.77;79.36
43934;BME280;59081;42.706;23.306;2023-03-01T11:11:29;95580.03;;;6.80;80.80
43934;BME280;59081;42.706;23.306;2023-03-01T11:17:04;95607.09;;;7.22;78.90
43934;BME280;59081;42.706;23.306;2023-03-01T11:19:39;95542.47;;;6.84;79.48
43934;BME280;59081;42.706;23.306;2023-03-01T11:24:49;95608.72;;;7.13;80.51
43934;BME280;59081;42.706;23.306;2023-03-01T11:27:45;95563.44;;;7.01;79.88
43934;BME280;59081;42.706;23.306;2023-03-01T11:30:30;95564.88;;;7.16;78.97
43934;BME280;59081;42.706;23.306;2023-03-01T11:41:51;95510.13;;;6.68;81.90
43934;BME280;59081;42.706;23.306;2023-03-01T11:44:28;95554.56;;;6.90;82.32
43934;BME280;59081;42.706;23.306;2023-03-01T11:47:42;95566.38;;;7.24;82.47
43934;BME280;59081;42.706;23.306;2023-03-01T11:50:18;95609.34;;;7.31;82.08
43934;BME280;59081;42.706;23.306;2023-03-01T11:58:54;95538.88;;;7.31;81.53
43934;BME280;59081;42.706;23.306;2023-03-01T12:01:44;95548.81;;;6.74;82.79
43934;BME280;59081;42.706;23.306;2023-03-01T12:04:38;95581.97;;;7.27;82.51
43934;BME280;59081;42.706;23.306;2023-03-01T12:32:22;95572.06;;;7.44;82.36
43934;BME280;59081;42.706;23.306;2023-03-01T12:37:57;95570.66;;;7.63;81.18
43934;BME280;59081;42.706;23.306;2023-03-01T12:41:26;95569.47;;;7.64;81.58
43934;BME280;59081;42.706;23.306;2023-03-01T12:44:01;95558.00;;;7.39;82.36
43934;BME280;59081;42.706;23.306;2023-03-01T12:47:18;95489.72;;;7.17;81.34
43934;BME280;59081;42.706;23.306;2023-03-01T12:49:51;95482.03;;;7.05;80.77
43934;BME280;59081;42.706;23.306;2023-03-01T12:55:21;95526.13;;;6.73;84.78
43934;BME280;59081;42.706;23.306;2023-03-01T12:58:00;95489.66;;;6.83;82.92
43934;BME280;59081;42.706;23.306;2023-03-01T13:01:03;95508.81;;;6.83;82.81
43934;BME280;59081;42.706;23.306;2023-03-01T13:03:56;95567.53;;;7.27;83.41
43934;BME280;59081;42.706;23.306;2023-03-01T13:11:57;95574.50;;;7.31;82.95
43934;BME280;59081;42.706;23.306;2023-03-01T13:16:52;95551.31;;;7.02;84.08
43934;BME280;59081;42.706;23.306;2023-03-01T13:19:23;95491.31;;;6.74;84.11
43934;BME280;59081;42.706;23.306;2023-03-01T13:21:51;95447.38;;;6.43;84.24
43934;BME280;59081;42.706;23.306;2023-03-01T13:24:40;95522.84;;;6.92;84.75
43934;BME280;59081;42.706;23.306;2023-03-01T13:27:22;95492.28;;;6.53;85.68
43934;BME280;59081;42.706;23.306;2023-03-01T13:29:59;95503.09;;;6.67;85.53
43934;BME280;59081;42.706;23.306;2023-03-01T13:32:37;95502.69;;;6.69;85.54
43934;BME280;59081;42.706;23.306;2023-03-01T13:37:46;95491.09;;;6.54;86.85
43934;BME280;59081;42.706;23.306;2023-03-01T13:42:54;95537.63;;;7.02;85.02
43934;BME280;59081;42.706;23.306;2023-03-01T13:45:36;95526.84;;;6.81;86.32
43934;BME280;59081;42.706;23.306;2023-03-01T13:48:08;95462.03;;;6.19;88.38
43934;BME280;59081;42.706;23.306;2023-03-01T13:50:43;95481.66;;;6.58;87.71
43934;BME280;59081;42.706;23.306;2023-03-01T13:53:19;95530.97;;;6.99;86.19
43934;BME280;59081;42.706;23.306;2023-03-01T13:55:55;95497.75;;;6.53;88.47
43934;BME280;59081;42.706;23.306;2023-03-01T13:58:30;95472.41;;;6.42;87.88
43934;BME280;59081;42.706;23.306;2023-03-01T14:01:06;95466.16;;;6.41;88.89
43934;BME280;59081;42.706;23.306;2023-03-01T14:03:41;95459.44;;;6.53;87.79
43934;BME280;59081;42.706;23.306;2023-03-01T14:06:12;95449.53;;;6.18;88.23
43934;BME280;59081;42.706;23.306;2023-03-01T14:08:45;95444.50;;;6.13;90.07
43934;BME280;59081;42.706;23.306;2023-03-01T14:11:40;95561.66;;;6.80;91.11
43934;BME280;59081;42.706;23.306;2023-03-01T14:20:08;95512.91;;;6.61;89.62
43934;BME280;59081;42.706;23.306;2023-03-01T14:22:53;95438.19;;;6.23;89.83
43934;BME280;59081;42.706;23.306;2023-03-01T14:25:31;95563.50;;;6.94;89.35
43934;BME280;59081;42.706;23.306;2023-03-01T14:28:18;95548.03;;;6.73;90.55
43934;BME280;59081;42.706;23.306;2023-03-01T14:30:47;95483.03;;;6.33;90.69
43934;BME280;59081;42.706;23.306;2023-03-01T14:33:43;95428.00;;;6.23;89.33
43934;BME280;59081;42.706;23.306;2023-03-01T14:36:29;95443.16;;;6.35;89.02
43934;BME280;59081;42.706;23.306;2023-03-01T14:38:55;95484.88;;;6.46;89.54
43934;BME280;59081;42.706;23.306;2023-03-01T14:41:26;95471.13;;;6.05;91.06
43934;BME280;59081;42.706;23.306;2023-03-01T14:43:58;95509.13;;;6.48;91.44
43934;BME280;59081;42.706;23.306;2023-03-01T14:46:26;95557.59;;;6.99;90.16
43934;BME280;59081;42.706;23.306;2023-03-01T14:48:59;95430.53;;;5.97;91.09
43934;BME280;59081;42.706;23.306;2023-03-01T14:51:27;95437.25;;;5.88;91.79
43934;BME280;59081;42.706;23.306;2023-03-01T14:53:55;95442.91;;;6.15;92.46
43934;BME280;59081;42.706;23.306;2023-03-01T14:56:26;95455.31;;;6.27;90.67
43934;BME280;59081;42.706;23.306;2023-03-01T14:58:58;95554.28;;;6.74;91.21
43934;BME280;59081;42.706;23.306;2023-03-01T15:01:25;95475.78;;;6.08;92.39
43934;BME280;59081;42.706;23.306;2023-03-01T15:03:52;95413.78;;;5.91;91.14
43934;BME280;59081;42.706;23.306;2023-03-01T15:06:22;95486.59;;;6.26;91.83